Time;durP1;ratioP1;P1;durP2;ratioP2;P2;SDS_P1;SDS_P2;PMS_P1;PMS_P2;Temp;Humidity;BMP_temperature;BMP_pressure;BME280_temperature;BME280_humidity;BME280_pressure;Samples;Min_cycle;Max_cycle;Signal;HPM_P1;HPM_P2
2023/12/06 00:07:12;;;;;;;15.45;10.38;;;;;;;20.23;46.76;100160.00;41410368;28;20049;-76
2023/12/06 00:27:12;;;;;;;13.20;9.02;;;;;;;20.17;46.73;100152.59;41445798;28;20041;-75
2023/12/06 00:47:13;;;;;;;13.25;10.05;;;;;;;20.25;46.38;100139.69;41427839;28;20113;-73
2023/12/06 01:07:13;;;;;;;15.07;10.00;;;;;;;20.25;46.50;100121.28;41416910;28;20046;-75
2023/12/06 01:27:14;;;;;;;13.80;9.90;;;;;;;20.21;46.19;100119.03;41434464;28;20132;-76
2023/12/06 01:47:18;;;;;;;11.85;8.88;;;;;;;20.21;46.29;100087.47;41446301;28;20046;-74
2023/12/06 02:07:20;;;;;;;12.30;9.65;;;;;;;20.20;46.44;100070.88;41339939;28;20065;-74
2023/12/06 02:27:21;;;;;;;13.43;9.75;;;;;;;20.22;46.12;100057.59;41365724;28;20049;-74
2023/12/06 02:47:23;;;;;;;11.77;8.93;;;;;;;20.26;46.29;100045.88;41453407;28;20512;-74
2023/12/06 03:07:23;;;;;;;10.93;8.25;;;;;;;20.28;46.00;100036.91;41447012;28;20038;-74
2023/12/06 03:27:25;;;;;;;10.25;8.38;;;;;;;20.27;45.96;100044.91;41389064;28;20043;-74
2023/12/06 03:47:26;;;;;;;10.50;8.50;;;;;;;20.25;45.78;100037.16;41316340;28;20082;-75
2023/12/06 04:07:26;;;;;;;10.27;8.23;;;;;;;20.23;46.04;100031.19;41314696;28;20046;-74
2023/12/06 04:27:26;;;;;;;9.68;7.38;;;;;;;20.26;45.91;100024.84;41269328;28;20082;-74
2023/12/06 04:47:27;;;;;;;10.00;7.78;;;;;;;20.29;45.80;100012.28;41272913;28;20405;-75
2023/12/06 05:07:27;;;;;;;9.43;7.85;;;;;;;20.24;45.88;100016.25;41268493;28;20053;-73
2023/12/06 05:27:27;;;;;;;22.83;10.05;;;;;;;20.98;44.52;100014.75;41268209;28;20075;-71
2023/12/06 05:47:28;;;;;;;12.98;8.70;;;;;;;21.07;45.34;100006.94;41252443;28;20419;-76
2023/12/06 06:07:28;;;;;;;16.77;8.18;;;;;;;21.03;45.88;99994.13;41264960;28;20101;-77
2023/12/06 06:27:29;;;;;;;17.55;9.18;;;;;;;20.75;44.84;100009.56;41270209;28;20038;-75
2023/12/06 06:47:29;;;;;;;13.23;8.82;;;;;;;20.97;44.93;100023.59;41329457;28;20042;-79
2023/12/06 07:07:30;;;;;;;15.95;8.20;;;;;;;21.02;45.24;100027.53;41303454;28;20092;-79
2023/12/06 07:27:30;;;;;;;16.10;8.38;;;;;;;21.09;45.16;100044.50;41309624;28;20723;-82
2023/12/06 07:47:31;;;;;;;11.93;7.65;;;;;;;21.12;45.22;100059.22;41307187;28;20052;-80
2023/12/06 08:07:31;;;;;;;11.68;7.72;;;;;;;21.18;44.79;100047.31;41378808;28;20053;-81
2023/12/06 08:27:34;;;;;;;11.07;8.25;;;;;;;21.18;44.50;100047.31;41348830;28;20034;-82
2023/12/06 08:47:34;;;;;;;10.80;8.70;;;;;;;21.13;44.24;100047.72;41307069;28;20050;-77
2023/12/06 09:07:34;;;;;;;12.07;9.15;;;;;;;21.05;44.21;100042.25;41352580;28;20401;-78
2023/12/06 09:27:35;;;;;;;14.35;10.25;;;;;;;21.17;45.38;100040.41;41352058;28;20038;-77
2023/12/06 09:47:39;;;;;;;13.18;10.27;;;;;;;21.39;44.15;100031.53;41364838;28;20477;-78
2023/12/06 10:07:39;;;;;;;12.43;9.98;;;;;;;21.54;44.13;100032.84;41560344;28;20042;-73
2023/12/06 10:27:40;;;;;;;13.88;10.05;;;;;;;21.50;43.91;100036.72;41368935;28;20042;-74
2023/12/06 10:47:41;;;;;;;13.10;10.25;;;;;;;21.52;43.82;100004.97;41320236;28;20474;-78
2023/12/06 11:08:08;;;;;;;12.85;10.25;;;;;;;21.58;43.95;100009.75;41337603;28;20062;-77
2023/12/06 11:28:12;;;;;;;13.45;10.10;;;;;;;21.51;43.91;99998.88;41342259;28;20046;-75
2023/12/06 11:48:13;;;;;;;14.27;10.82;;;;;;;21.47;44.18;99992.22;41350005;28;20485;-75
2023/12/06 12:08:14;;;;;;;13.43;10.75;;;;;;;21.47;43.98;99979.06;41371284;28;20034;-78
2023/12/06 12:28:17;;;;;;;15.65;11.85;;;;;;;21.48;43.46;99964.06;41377486;28;20058;-76
2023/12/06 12:48:17;;;;;;;15.68;11.85;;;;;;;21.43;43.91;99946.88;41344812;28;20042;-78
2023/12/06 13:08:18;;;;;;;16.27;11.63;;;;;;;21.54;43.23;99939.84;41293916;28;20053;-77
2023/12/06 13:28:18;;;;;;;17.75;11.52;;;;;;;21.56;43.63;99928.22;41324450;28;20502;-81
2023/12/06 13:48:19;;;;;;;16.08;10.85;;;;;;;21.53;44.33;99925.00;41307941;28;20042;-80
2023/12/06 14:08:19;;;;;;;12.68;9.57;;;;;;;21.49;44.14;99940.22;41351891;28;20042;-78
2023/12/06 14:28:20;;;;;;;14.95;11.70;;;;;;;21.71;46.09;99955.03;41306026;28;20077;-82
2023/12/06 14:48:21;;;;;;;13.65;10.57;;;;;;;21.63;46.21;99961.94;41423851;28;20088;-84
2023/12/06 15:08:22;;;;;;;15.20;9.82;;;;;;;21.47;45.96;99976.41;41438547;28;20045;-83
2023/12/06 15:28:22;;;;;;;12.23;8.95;;;;;;;21.34;46.06;99976.63;41359266;28;20490;-79
2023/12/06 15:48:24;;;;;;;11.43;8.43;;;;;;;21.31;45.96;99981.31;41339991;28;20160;-80
2023/12/06 16:08:24;;;;;;;10.40;7.88;;;;;;;21.17;45.65;99977.22;41421676;28;20046;-81
2023/12/06 16:28:24;;;;;;;10.20;7.82;;;;;;;21.08;45.85;99995.44;41402074;28;20062;-83
2023/12/06 16:48:25;;;;;;;8.73;7.10;;;;;;;20.98;45.50;100005.03;41283099;28;20058;-83
2023/12/06 17:08:25;;;;;;;11.25;7.25;;;;;;;20.92;45.52;100010.81;41276520;28;20485;-82
2023/12/06 17:28:26;;;;;;;8.70;7.03;;;;;;;20.85;45.30;100038.59;41319637;28;21227;-81
2023/12/06 17:48:27;;;;;;;7.93;6.30;;;;;;;20.70;44.74;100065.19;41347394;28;20228;-78
2023/12/06 18:08:29;;;;;;;18.65;6.47;;;;;;;20.71;46.51;100084.44;41265851;28;20053;-73
2023/12/06 18:28:31;;;;;;;11.65;6.10;;;;;;;20.77;46.46;100084.78;41255015;28;20126;-73
2023/12/06 18:48:34;;;;;;;13.57;6.93;;;;;;;20.72;46.52;100100.13;41280245;28;20046;-75
2023/12/06 19:08:35;;;;;;;24.48;10.45;;;;;;;21.09;48.28;100097.16;41305787;28;20506;-74
2023/12/06 19:28:37;;;;;;;31.10;15.60;;;;;;;21.05;52.91;100108.06;41288054;28;20153;-73
2023/12/06 19:48:38;;;;;;;27.85;12.90;;;;;;;20.81;50.99;100124.03;41287128;28;20110;-73
2023/12/06 20:08:41;;;;;;;27.48;12.10;;;;;;;20.88;52.36;100117.31;41340749;28;20551;-74
2023/12/06 20:28:43;;;;;;;21.88;11.57;;;;;;;20.76;51.31;100079.66;41256148;28;20077;-73
2023/12/06 20:48:45;;;;;;;21.17;10.90;;;;;;;20.59;50.32;100052.03;41261867;28;20401;-75
2023/12/06 21:08:46;;;;;;;15.48;9.98;;;;;;;20.54;50.87;100046.31;41274011;28;20046;-76
2023/12/06 21:28:46;;;;;;;16.45;9.60;;;;;;;20.54;50.32;100044.50;41426442;28;20053;-75
2023/12/06 21:48:55;;;;;;;15.45;8.68;;;;;;;20.50;50.43;100065.94;41512214;28;20444;-75
2023/12/06 22:09:03;;;;;;;11.50;7.10;;;;;;;20.30;49.93;100044.69;41400744;28;20046;-77
2023/12/06 22:29:04;;;;;;;9.45;7.45;;;;;;;20.41;50.09;100070.97;41503194;28;20044;-76
2023/12/06 22:49:05;;;;;;;9.13;6.15;;;;;;;20.37;50.38;100081.84;41472828;28;20018;-76
2023/12/06 23:09:05;;;;;;;8.55;5.72;;;;;;;20.27;50.70;100071.22;41351629;28;20080;-76
2023/12/06 23:29:05;;;;;;;7.47;5.38;;;;;;;20.22;50.78;100083.88;41397291;28;20045;-76
2023/12/06 23:49:06;;;;;;;6.00;4.75;;;;;;;20.16;50.72;100079.94;41315990;28;20627;-76
